createdAt,value
2018-11-25T00:01:52.608Z,38.80
2018-11-25T00:04:29.719Z,37.90
2018-11-25T00:06:59.644Z,39.67
2018-11-25T00:09:29.398Z,37.00
2018-11-25T00:12:03.647Z,36.57
2018-11-25T00:14:34.879Z,36.67
2018-11-25T00:17:04.741Z,39.20
2018-11-25T00:19:34.338Z,39.23
2018-11-25T00:22:04.339Z,40.73
2018-11-25T00:24:34.579Z,37.60
2018-11-25T00:27:05.599Z,33.77
2018-11-25T00:29:35.317Z,39.40
2018-11-25T00:32:05.377Z,43.10
2018-11-25T00:34:35.836Z,40.83
2018-11-25T00:37:06.555Z,39.93
2018-11-25T00:39:36.698Z,39.43
2018-11-25T00:42:07.020Z,40.70
2018-11-25T00:44:37.101Z,39.07
2018-11-25T00:47:07.180Z,35.90
2018-11-25T00:49:37.758Z,36.37
2018-11-25T00:52:07.841Z,39.87
2018-11-25T00:54:37.962Z,39.47
2018-11-25T00:57:07.903Z,36.77
2018-11-25T00:59:37.775Z,37.33
2018-11-25T01:02:08.345Z,36.80
2018-11-25T01:04:38.343Z,38.20
2018-11-25T01:07:08.420Z,44.80
2018-11-25T01:09:38.818Z,37.67
2018-11-25T01:12:09.179Z,36.23
2018-11-25T01:14:39.282Z,41.43
2018-11-25T01:17:10.181Z,44.00
2018-11-25T01:19:39.700Z,42.57
2018-11-25T01:22:16.580Z,40.87
2018-11-25T01:24:46.662Z,40.00
2018-11-25T01:27:16.720Z,34.60
2018-11-25T01:29:46.648Z,37.07
2018-11-25T01:32:16.904Z,37.50
2018-11-25T01:34:46.643Z,37.30
2018-11-25T01:37:16.791Z,32.53
2018-11-25T01:39:47.382Z,34.07
2018-11-25T01:42:17.445Z,31.97
2018-11-25T01:44:46.808Z,36.53
2018-11-25T01:47:16.538Z,36.40
2018-11-25T01:49:47.819Z,35.70
2018-11-25T01:52:18.266Z,36.60
2018-11-25T01:54:48.920Z,34.93
2018-11-25T01:57:19.243Z,39.20
2018-11-25T01:59:51.343Z,34.93
2018-11-25T02:02:21.538Z,37.30
2018-11-25T02:04:51.619Z,36.30
2018-11-25T02:07:21.219Z,34.70
2018-11-25T02:09:51.039Z,33.93
2018-11-25T02:12:21.359Z,36.73
2018-11-25T02:14:51.820Z,34.23
2018-11-25T02:17:22.539Z,36.07
2018-11-25T02:19:52.900Z,31.83
2018-11-25T02:22:22.980Z,36.13
2018-11-25T02:24:53.138Z,36.37
2018-11-25T02:27:22.860Z,37.57
2018-11-25T02:29:52.961Z,34.80
2018-11-25T02:32:23.218Z,35.40
2018-11-25T02:34:53.499Z,34.77
2018-11-25T02:37:23.436Z,36.10
2018-11-25T02:39:53.556Z,38.93
2018-11-25T02:42:23.675Z,39.67
2018-11-25T02:44:54.316Z,49.63
2018-11-25T02:47:24.196Z,46.27
2018-11-25T02:49:53.976Z,45.10
2018-11-25T02:52:23.775Z,45.17
2018-11-25T02:54:54.935Z,46.20
2018-11-25T02:57:26.038Z,48.67
2018-11-25T02:59:56.256Z,47.37
2018-11-25T03:02:26.942Z,48.40
2018-11-25T03:04:57.203Z,43.23
2018-11-25T03:07:32.039Z,45.07
2018-11-25T03:10:01.865Z,46.27
2018-11-25T03:12:32.625Z,43.83
2018-11-25T03:15:02.380Z,45.27
2018-11-25T03:17:32.441Z,43.20
2018-11-25T03:20:02.545Z,42.70
2018-11-25T03:22:32.641Z,46.23
2018-11-25T03:25:02.321Z,43.57
2018-11-25T03:27:32.562Z,41.17
2018-11-25T03:30:02.666Z,47.07
2018-11-25T03:32:32.901Z,46.17
2018-11-25T03:35:02.567Z,47.00
2018-11-25T03:37:32.783Z,45.13
2018-11-25T03:40:02.662Z,46.43
2018-11-25T03:42:32.721Z,43.67
2018-11-25T03:45:02.721Z,45.93
2018-11-25T03:47:32.660Z,42.87
2018-11-25T03:50:03.000Z,43.47
2018-11-25T03:52:33.906Z,44.67
2018-11-25T03:55:04.198Z,44.10
2018-11-25T03:57:34.120Z,46.27
2018-11-25T04:00:04.060Z,43.23
2018-11-25T04:02:34.149Z,43.27
2018-11-25T04:05:03.842Z,53.13
2018-11-25T04:07:33.762Z,42.50
2018-11-25T04:10:03.823Z,42.93
2018-11-25T04:12:33.943Z,47.60
2018-11-25T04:15:04.204Z,51.00
2018-11-25T04:17:34.302Z,55.70
2018-11-25T04:20:04.842Z,52.73
2018-11-25T04:22:35.405Z,57.77
2018-11-25T04:25:05.784Z,54.87
2018-11-25T04:27:35.363Z,61.57
2018-11-25T04:30:13.679Z,59.80
2018-11-25T04:32:43.763Z,52.60
2018-11-25T04:35:14.284Z,56.00
2018-11-25T04:37:44.047Z,54.63
2018-11-25T04:40:15.985Z,55.97
2018-11-25T04:42:46.524Z,56.83
2018-11-25T04:45:18.381Z,61.33
2018-11-25T04:47:48.863Z,61.20
2018-11-25T04:50:24.422Z,61.40
2018-11-25T04:52:54.729Z,59.87
2018-11-25T04:55:25.083Z,54.63
2018-11-25T04:57:54.843Z,62.33
2018-11-25T05:00:24.135Z,59.97
2018-11-25T05:02:54.258Z,64.90
2018-11-25T05:05:24.346Z,69.33
2018-11-25T05:08:12.940Z,64.77
2018-11-25T05:10:43.076Z,65.53
2018-11-25T05:13:12.642Z,66.37
2018-11-25T05:15:42.759Z,66.33
2018-11-25T05:18:13.118Z,70.37
2018-11-25T05:20:42.977Z,73.07
2018-11-25T05:23:12.755Z,77.33
2018-11-25T05:25:42.978Z,76.20
2018-11-25T05:28:12.842Z,82.13
2018-11-25T05:30:43.177Z,83.90
2018-11-25T05:33:13.296Z,81.43
2018-11-25T05:35:43.295Z,100.27
2018-11-25T05:38:12.977Z,70.13
2018-11-25T05:40:43.180Z,64.93
2018-11-25T05:43:13.717Z,78.07
2018-11-25T05:45:43.657Z,77.60
2018-11-25T05:48:13.336Z,84.10
2018-11-25T05:50:43.096Z,77.97
2018-11-25T05:53:13.238Z,79.17
2018-11-25T05:55:43.016Z,70.47
2018-11-25T05:58:12.977Z,69.83
2018-11-25T06:00:42.700Z,68.00
2018-11-25T06:03:12.941Z,59.13
2018-11-25T06:05:43.120Z,69.00
2018-11-25T06:08:13.241Z,67.67
2018-11-25T06:10:42.797Z,72.33
2018-11-25T06:13:12.435Z,69.33
2018-11-25T06:15:42.735Z,72.93
2018-11-25T06:18:12.835Z,69.70
2018-11-25T06:23:17.755Z,65.77
2018-11-25T06:25:52.878Z,61.70
2018-11-25T06:28:24.015Z,62.43
2018-11-25T06:30:54.276Z,63.67
2018-11-25T06:33:28.715Z,62.43
2018-11-25T06:35:59.216Z,64.17
2018-11-25T06:38:29.176Z,60.47
2018-11-25T06:40:58.879Z,64.47
2018-11-25T06:43:32.858Z,63.63
2018-11-25T06:46:03.197Z,68.10
2018-11-25T06:48:33.143Z,71.87
2018-11-25T06:51:03.337Z,67.30
2018-11-25T06:53:33.902Z,66.77
2018-11-25T06:56:03.721Z,60.73
2018-11-25T06:58:33.660Z,64.53
2018-11-25T07:01:03.844Z,68.33
2018-11-25T07:03:34.065Z,59.10
2018-11-25T07:06:03.724Z,59.07
2018-11-25T07:08:33.644Z,56.17
2018-11-25T07:11:04.404Z,52.90
2018-11-25T07:13:33.985Z,50.80
2018-11-25T07:16:03.605Z,52.57
2018-11-25T07:18:34.724Z,50.93
2018-11-25T07:21:04.965Z,53.20
2018-11-25T07:23:35.345Z,50.73
2018-11-25T07:26:05.405Z,57.00
2018-11-25T07:28:35.124Z,51.37
2018-11-25T07:31:06.225Z,52.87
2018-11-25T07:33:35.900Z,59.30
2018-11-25T07:36:06.061Z,59.87
2018-11-25T07:38:36.240Z,53.53
2018-11-25T07:41:06.116Z,51.50
2018-11-25T07:43:36.300Z,54.33
2018-11-25T07:46:07.918Z,48.33
2018-11-25T07:48:37.817Z,51.40
2018-11-25T07:51:09.016Z,48.77
2018-11-25T07:53:39.337Z,45.53
2018-11-25T07:56:09.526Z,45.53
2018-11-25T07:58:39.677Z,48.30
2018-11-25T08:01:09.406Z,43.07
2018-11-25T08:03:39.876Z,42.87
2018-11-25T08:06:10.150Z,43.80
2018-11-25T08:08:39.925Z,39.90
2018-11-25T08:11:10.681Z,43.90
2018-11-25T08:13:40.775Z,39.77
2018-11-25T08:16:10.336Z,40.83
2018-11-25T08:18:40.604Z,40.93
2018-11-25T08:21:10.855Z,41.47
2018-11-25T08:23:43.200Z,43.33
2018-11-25T08:26:13.435Z,36.00
2018-11-25T08:28:43.696Z,39.30
2018-11-25T08:31:13.495Z,39.80
2018-11-25T08:33:44.616Z,39.27
2018-11-25T08:36:14.278Z,45.53
2018-11-25T08:38:52.268Z,42.33
2018-11-25T08:41:21.927Z,40.80
2018-11-25T08:43:52.246Z,48.60
2018-11-25T08:46:22.667Z,47.50
2018-11-25T08:48:54.422Z,47.80
2018-11-25T08:51:26.119Z,49.07
2018-11-25T08:53:55.935Z,46.70
2018-11-25T08:56:26.216Z,52.23
2018-11-25T08:58:56.595Z,42.17
2018-11-25T09:01:26.595Z,45.90
2018-11-25T09:03:57.106Z,47.63
2018-11-25T09:06:26.827Z,46.97
2018-11-25T09:08:56.946Z,46.93
2018-11-25T09:11:28.580Z,46.37
2018-11-25T09:13:58.375Z,43.03
2018-11-25T09:16:28.496Z,43.47
2018-11-25T09:19:02.438Z,43.83
2018-11-25T09:21:32.475Z,45.10
2018-11-25T09:24:06.175Z,41.53
2018-11-25T09:26:36.236Z,40.87
2018-11-25T09:29:06.739Z,43.77
2018-11-25T09:31:36.443Z,43.60
2018-11-25T09:34:07.598Z,43.90
2018-11-25T09:36:37.352Z,41.27
2018-11-25T09:39:09.916Z,44.70
2018-11-25T09:41:39.862Z,48.40
2018-11-25T09:44:10.298Z,41.90
2018-11-25T09:46:42.730Z,42.47
2018-11-25T09:49:11.539Z,41.90
2018-11-25T09:51:41.295Z,41.43
2018-11-25T09:54:11.737Z,39.53
2018-11-25T09:56:41.859Z,40.77
2018-11-25T09:59:12.476Z,36.77
2018-11-25T10:01:43.021Z,41.27
2018-11-25T10:04:18.301Z,39.43
2018-11-25T10:06:48.201Z,40.13
2018-11-25T10:09:18.701Z,37.87
2018-11-25T10:11:48.621Z,38.00
2018-11-25T10:14:18.562Z,40.80
2018-11-25T10:16:50.061Z,42.00
2018-11-25T10:19:20.640Z,38.60
2018-11-25T10:21:50.967Z,36.20
2018-11-25T10:24:25.635Z,36.47
2018-11-25T10:26:55.355Z,40.83
2018-11-25T10:29:25.423Z,42.90
2018-11-25T10:31:55.604Z,39.90
2018-11-25T10:34:26.085Z,44.70
2018-11-25T10:36:55.678Z,43.47
2018-11-25T10:39:25.534Z,45.67
2018-11-25T10:41:55.503Z,47.33
2018-11-25T10:44:25.779Z,39.87
2018-11-25T10:46:55.239Z,37.73
2018-11-25T10:49:25.248Z,42.13
2018-11-25T10:51:55.189Z,37.80
2018-11-25T10:54:25.428Z,45.13
2018-11-25T10:56:55.476Z,45.33
2018-11-25T10:59:25.623Z,42.80
2018-11-25T11:02:00.864Z,42.57
2018-11-25T11:04:38.101Z,49.03
2018-11-25T11:07:14.261Z,45.60
2018-11-25T11:09:43.724Z,46.57
2018-11-25T11:12:15.341Z,49.33
2018-11-25T11:14:45.345Z,44.40
2018-11-25T11:17:14.985Z,43.17
2018-11-25T11:19:45.080Z,47.73
2018-11-25T11:22:14.940Z,48.00
2018-11-25T11:24:44.800Z,48.30
2018-11-25T11:27:14.765Z,49.93
2018-11-25T11:29:44.241Z,54.63
2018-11-25T11:32:13.855Z,48.03
2018-11-25T11:34:43.555Z,48.70
2018-11-25T11:37:13.536Z,48.53
2018-11-25T11:39:43.655Z,53.20
2018-11-25T11:42:13.603Z,50.00
2018-11-25T11:44:43.096Z,48.67
2018-11-25T11:47:12.836Z,51.67
2018-11-25T11:49:42.555Z,49.97
2018-11-25T11:52:12.296Z,50.97
2018-11-25T11:54:41.863Z,51.40
2018-11-25T11:57:11.764Z,51.83
2018-11-25T11:59:41.220Z,49.83
2018-11-25T12:02:10.823Z,54.00
2018-11-25T12:04:40.304Z,50.37
2018-11-25T12:07:10.137Z,51.23
2018-11-25T12:09:39.803Z,54.57
2018-11-25T12:12:10.387Z,57.33
2018-11-25T12:14:40.147Z,58.80
2018-11-25T12:17:10.005Z,58.00
2018-11-25T12:19:39.733Z,60.90
2018-11-25T12:22:10.045Z,58.93
2018-11-25T12:24:39.724Z,61.27
2018-11-25T12:27:10.400Z,58.77
2018-11-25T12:29:40.228Z,59.63
2018-11-25T12:32:10.048Z,57.27
2018-11-25T12:34:39.948Z,63.83
2018-11-25T12:37:09.588Z,57.60
2018-11-25T12:39:39.529Z,63.17
2018-11-25T12:42:10.010Z,56.00
2018-11-25T12:44:40.016Z,59.50
2018-11-25T12:47:10.122Z,57.47
2018-11-25T12:49:40.164Z,60.50
2018-11-25T12:52:09.998Z,63.57
2018-11-25T12:54:39.760Z,59.23
2018-11-25T12:57:09.637Z,60.30
2018-11-25T12:59:39.365Z,62.40
2018-11-25T13:02:13.468Z,62.30
2018-11-25T13:04:45.487Z,62.50
2018-11-25T13:07:15.509Z,59.63
2018-11-25T13:09:45.944Z,60.23
2018-11-25T13:12:16.285Z,57.37
2018-11-25T13:14:47.306Z,60.70
2018-11-25T13:17:18.275Z,58.93
2018-11-25T13:22:22.795Z,54.17
2018-11-25T13:24:53.556Z,51.93
2018-11-25T13:27:23.516Z,50.63
2018-11-25T13:29:53.375Z,56.57
2018-11-25T13:32:23.260Z,55.00
2018-11-25T13:34:53.463Z,54.13
2018-11-25T13:37:23.815Z,55.47
2018-11-25T13:39:54.167Z,54.80
2018-11-25T13:42:24.624Z,56.47
2018-11-25T13:44:53.499Z,55.07
2018-11-25T13:47:25.131Z,54.00
2018-11-25T13:49:54.444Z,51.67
2018-11-25T13:52:29.471Z,58.20
2018-11-25T13:54:59.230Z,53.40
2018-11-25T13:57:31.331Z,45.57
2018-11-25T14:00:01.001Z,53.03
2018-11-25T14:02:30.535Z,54.57
2018-11-25T14:05:04.090Z,48.60
2018-11-25T14:07:33.796Z,56.23
2018-11-25T14:10:03.842Z,45.43
2018-11-25T14:12:33.603Z,44.00
2018-11-25T14:15:03.252Z,44.60
2018-11-25T14:17:32.957Z,49.97
2018-11-25T14:20:03.018Z,44.50
2018-11-25T14:22:32.617Z,41.67
2018-11-25T14:25:02.375Z,42.80
2018-11-25T14:27:31.994Z,39.93
2018-11-25T14:30:02.057Z,41.97
2018-11-25T14:32:36.263Z,39.27
2018-11-25T14:35:06.461Z,38.23
2018-11-25T14:37:37.038Z,33.87
2018-11-25T14:40:17.378Z,37.73
2018-11-25T14:42:47.337Z,39.40
2018-11-25T14:45:17.936Z,37.77
2018-11-25T14:47:47.724Z,37.53
2018-11-25T14:50:20.460Z,40.83
2018-11-25T14:52:51.517Z,40.43
2018-11-25T14:55:23.406Z,40.73
2018-11-25T14:57:55.852Z,42.50
2018-11-25T15:00:29.720Z,43.57
2018-11-25T15:03:03.600Z,44.13
2018-11-25T15:05:39.861Z,40.33
2018-11-25T15:08:11.664Z,42.10
2018-11-25T15:10:41.476Z,43.83
2018-11-25T15:13:11.284Z,36.57
2018-11-25T15:15:40.820Z,39.67
2018-11-25T15:18:15.985Z,53.97
2018-11-25T15:20:45.559Z,49.37
2018-11-25T15:23:16.247Z,49.40
2018-11-25T15:28:22.502Z,40.00
2018-11-25T15:30:52.247Z,44.30
2018-11-25T15:33:22.094Z,40.97
2018-11-25T15:35:54.305Z,43.20
2018-11-25T15:38:23.781Z,38.53
2018-11-25T15:40:59.547Z,44.47
2018-11-25T15:43:29.279Z,81.50
2018-11-25T15:46:00.437Z,65.83
2018-11-25T15:48:31.527Z,55.33
2018-11-25T15:51:01.269Z,89.00
2018-11-25T15:53:30.811Z,68.13
2018-11-25T15:56:02.544Z,64.57
2018-11-25T15:58:32.326Z,52.70
2018-11-25T16:01:02.395Z,52.40
2018-11-25T16:03:32.161Z,48.90
2018-11-25T16:06:11.008Z,47.97
2018-11-25T16:08:40.608Z,46.77
2018-11-25T16:11:10.392Z,46.83
2018-11-25T16:13:39.931Z,46.43
2018-11-25T16:16:10.732Z,48.07
2018-11-25T16:18:40.660Z,43.07
2018-11-25T16:21:10.639Z,50.43
2018-11-25T16:23:40.333Z,46.43
2018-11-25T16:26:17.303Z,45.03
2018-11-25T16:28:48.716Z,47.77
2018-11-25T16:31:18.669Z,47.60
2018-11-25T16:33:48.243Z,44.03
2018-11-25T16:36:17.764Z,44.23
2018-11-25T16:38:47.254Z,48.20
2018-11-25T16:41:16.783Z,48.30
2018-11-25T16:43:46.371Z,46.63
2018-11-25T16:46:19.795Z,45.77
2018-11-25T16:48:49.506Z,45.07
2018-11-25T16:51:19.339Z,51.67
2018-11-25T16:53:49.192Z,49.63
2018-11-25T16:56:18.791Z,48.63
2018-11-25T16:58:48.241Z,48.37
2018-11-25T17:01:17.755Z,48.83
2018-11-25T17:03:47.576Z,43.20
2018-11-25T17:06:17.476Z,48.73
2018-11-25T17:08:48.499Z,50.13
2018-11-25T17:11:18.779Z,50.57
2018-11-25T17:13:48.777Z,52.03
2018-11-25T17:16:18.297Z,51.50
2018-11-25T17:18:48.005Z,48.87
2018-11-25T17:21:19.961Z,49.87
2018-11-25T17:23:51.845Z,51.60
2018-11-25T17:26:21.679Z,51.10
2018-11-25T17:28:51.579Z,47.60
2018-11-25T17:31:21.283Z,47.57
2018-11-25T17:33:55.421Z,47.13
2018-11-25T17:36:25.256Z,44.97
2018-11-25T17:38:54.895Z,48.07
2018-11-25T17:41:24.816Z,50.83
2018-11-25T17:43:54.393Z,47.70
2018-11-25T17:46:24.145Z,56.30
2018-11-25T17:48:58.200Z,60.27
2018-11-25T17:51:27.641Z,66.17
2018-11-25T17:53:57.203Z,65.73
2018-11-25T17:56:28.880Z,73.03
2018-11-25T17:58:58.461Z,76.00
2018-11-25T18:01:28.182Z,78.43
2018-11-25T18:03:58.722Z,74.83
2018-11-25T18:06:28.428Z,121.40
2018-11-25T18:08:58.041Z,108.97
2018-11-25T18:11:27.721Z,82.33
2018-11-25T18:13:57.460Z,87.80
2018-11-25T18:16:27.124Z,49.20
2018-11-25T18:19:10.120Z,44.07
2018-11-25T18:21:40.069Z,45.63
2018-11-25T18:24:09.687Z,45.10
2018-11-25T18:26:39.374Z,32.83
2018-11-25T18:29:09.386Z,24.67
2018-11-25T18:31:39.239Z,23.23
2018-11-25T18:34:08.988Z,16.63
2018-11-25T18:36:40.217Z,17.17
2018-11-25T18:39:12.596Z,16.07
2018-11-25T18:41:42.555Z,16.60
2018-11-25T18:44:12.675Z,14.83
2018-11-25T18:46:47.023Z,16.13
2018-11-25T18:49:14.220Z,13.17
2018-11-25T18:51:44.260Z,10.93
2018-11-25T18:54:14.179Z,11.47
2018-11-25T18:56:43.678Z,11.03
2018-11-25T18:59:13.583Z,9.70
2018-11-25T19:01:49.288Z,11.17
2018-11-25T19:04:19.499Z,10.50
2018-11-25T19:06:49.621Z,10.03
2018-11-25T19:09:19.940Z,9.90
2018-11-25T19:11:50.758Z,11.13
2018-11-25T19:14:21.757Z,10.83
2018-11-25T19:16:52.016Z,12.53
2018-11-25T19:19:23.561Z,11.33
2018-11-25T19:21:54.500Z,9.73
2018-11-25T19:24:24.969Z,8.87
2018-11-25T19:26:57.681Z,8.33
2018-11-25T19:29:29.597Z,7.10
2018-11-25T19:32:01.222Z,7.77
2018-11-25T19:34:31.941Z,7.23
2018-11-25T19:37:02.737Z,6.03
2018-11-25T19:39:36.298Z,5.90
2018-11-25T19:42:13.278Z,7.53
2018-11-25T19:44:44.879Z,6.77
2018-11-25T19:47:16.478Z,6.70
2018-11-25T19:49:47.880Z,6.70
2018-11-25T19:52:18.884Z,7.27
2018-11-25T19:54:50.479Z,6.27
2018-11-25T19:57:23.267Z,6.43
2018-11-25T19:59:53.971Z,6.67
2018-11-25T20:02:25.300Z,6.73
2018-11-25T20:04:56.942Z,7.97
2018-11-25T20:07:32.902Z,8.40
2018-11-25T20:10:04.306Z,7.50
2018-11-25T20:12:40.441Z,6.47
2018-11-25T20:15:15.067Z,8.97
2018-11-25T20:17:54.120Z,8.70
2018-11-25T20:20:20.847Z,8.50
2018-11-25T20:25:29.617Z,6.97
2018-11-25T20:30:35.603Z,8.03
2018-11-25T20:33:11.340Z,7.93
2018-11-25T20:35:44.552Z,7.60
2018-11-25T20:38:26.439Z,9.53
2018-11-25T20:40:58.919Z,10.10
2018-11-25T20:43:30.136Z,10.17
2018-11-25T20:46:05.699Z,8.57
2018-11-25T20:48:37.416Z,9.73
2018-11-25T20:51:08.819Z,8.97
2018-11-25T20:53:45.662Z,10.87
2018-11-25T20:56:15.967Z,8.70
2018-11-25T20:58:45.958Z,9.03
2018-11-25T21:01:16.167Z,8.03
2018-11-25T21:03:46.255Z,9.50
2018-11-25T21:06:16.713Z,9.33
2018-11-25T21:08:47.205Z,7.97
2018-11-25T21:11:16.834Z,8.13
2018-11-25T21:13:46.639Z,7.87
2018-11-25T21:16:16.407Z,7.67
2018-11-25T21:18:46.899Z,8.03
2018-11-25T21:21:17.119Z,13.20
2018-11-25T21:23:47.854Z,9.60
2018-11-25T21:26:18.662Z,15.03
2018-11-25T21:28:48.557Z,9.67
2018-11-25T21:31:18.262Z,8.47
2018-11-25T21:33:48.262Z,8.27
2018-11-25T21:36:22.400Z,10.30
2018-11-25T21:38:52.060Z,7.97
2018-11-25T21:41:26.062Z,8.63
2018-11-25T21:43:55.626Z,7.93
2018-11-25T21:46:25.580Z,11.23
2018-11-25T21:48:55.257Z,9.27
2018-11-25T21:51:25.458Z,9.70
2018-11-25T21:53:56.279Z,11.40
2018-11-25T21:56:25.102Z,8.80
2018-11-25T21:58:56.579Z,9.37
2018-11-25T22:01:27.015Z,8.80
2018-11-25T22:03:57.015Z,10.97
2018-11-25T22:06:27.776Z,8.90
2018-11-25T22:08:57.680Z,7.70
2018-11-25T22:11:28.076Z,6.40
2018-11-25T22:13:58.095Z,8.20
2018-11-25T22:16:37.736Z,11.37
2018-11-25T22:19:07.656Z,7.80
2018-11-25T22:21:38.716Z,8.87
2018-11-25T22:24:09.255Z,7.13
2018-11-25T22:26:39.915Z,6.90
2018-11-25T22:29:10.356Z,8.83
2018-11-25T22:31:40.081Z,13.93
2018-11-25T22:34:09.896Z,7.33
2018-11-25T22:36:40.358Z,7.53
2018-11-25T22:39:10.998Z,15.57
2018-11-25T22:41:45.118Z,17.27
2018-11-25T22:44:19.776Z,7.80
2018-11-25T22:46:49.835Z,6.77
2018-11-25T22:49:19.595Z,6.67
2018-11-25T22:51:49.715Z,6.10
2018-11-25T22:54:19.736Z,5.90
2018-11-25T22:56:49.616Z,5.60
2018-11-25T22:59:21.137Z,6.13
2018-11-25T23:01:51.361Z,5.47
2018-11-25T23:04:31.658Z,9.13
2018-11-25T23:07:04.697Z,5.77
2018-11-25T23:09:34.717Z,5.27
2018-11-25T23:12:04.556Z,5.37
2018-11-25T23:14:34.716Z,4.97
2018-11-25T23:17:04.936Z,5.53
2018-11-25T23:19:34.960Z,5.50
2018-11-25T23:22:04.956Z,5.53
2018-11-25T23:24:38.938Z,5.33
2018-11-25T23:27:09.838Z,6.13
2018-11-25T23:29:39.837Z,9.20
2018-11-25T23:32:16.778Z,7.40
2018-11-25T23:34:47.355Z,6.30
2018-11-25T23:37:17.117Z,6.13
2018-11-25T23:39:47.076Z,8.33
2018-11-25T23:42:17.268Z,6.97
2018-11-25T23:44:46.957Z,10.03
2018-11-25T23:47:16.955Z,5.93
2018-11-25T23:49:46.975Z,6.10
2018-11-25T23:52:16.875Z,6.40
2018-11-25T23:54:47.297Z,6.40
2018-11-25T23:57:17.977Z,7.30
2018-11-25T23:59:48.277Z,7.27
